Etusivu
METAR-TAF:

METAR-TAF

Lentoasemat :

Biloxi, Mississippi, Yhdysvallat

Leveyspiiri: 30-25N, Pituuspiiri: 088-55W, korkeus merenpinnasta: 10 m

Tämänhetkinen sää

Tämä raportti tehtiin 21 minuuttia sitten, kello 12.56 UTC
Lämpötila
Ilmanpaine

METAR: KBIX 271256Z AUTO M M M M M M RMK AO2 SLPNO RVRNO PNO TSNO VISNO RWY03 CHINO RWY03 $

Aika: 08:17 (13:17 UTC)

Sääennuste

Tämä raportti tehtiin 14 tuntia ja 48 minuuttia sitten, kello 22.29 UTC
Ennuste voimassa 26. päivästä klo 22 UTC - 27. päivään klo 24 UTC
Tuuli 6 kn etelästä/kaakosta
Näkyvyys 10 km tai enemmän
Muutamia pilviä 25000 ft:n korkeudessa
Tulossa
27. päivästä klo 02 UTC - 27. päivään klo 03 UTC
Tuuli 3 kn eri suunnista
Näkyvyys: 2810 m
selkeää

TAF: KBIX 262229Z 2622/2724 16006KT 9999 FEW250 QNH3010INS BECMG 2702/2703 VRB03KT 9999 SKC QNH3013INS TX32/2622Z TN23/2712Z LAST NO AMDS AFT 2622 NEXT 2810

Säähavainnot ja -ennusteet yli 4000 lentoasemalta (METAR- ja TAF-raportit).

Käytössä olevat sääasemat on merkitty karttaan keltaisilla ja punaisilla pisteillä.

Aseta hiiri pisteen päälle nähdäksesi sääaseman nimen.

Klikkaa sitten nähdäksesi säähavainnot ja -ennusteet.

Kartan vaihtaminen: klikkaa mustalla rastilla varustettuja vihreitä pisteitä, niin voit zoomata sisään; viivalla varustettua vihreää pistettä, niin voit zoomata ulos tai vihreitä nuolia, niin pääset viereisille kartoille.


METAR-TAF: